Time;durP1;ratioP1;P1;durP2;ratioP2;P2;SDS_P1;SDS_P2;PMS_P1;PMS_P2;Temp;Humidity;BMP_temperature;BMP_pressure;BME280_temperature;BME280_humidity;BME280_pressure;Samples;Min_cycle;Max_cycle;Signal;HPM_P1;HPM_P2
2023/06/21 00:01:31;;;;;;;22.88;12.43;;;19.20;99.90;;;;;;5011041;28;20087;-73
2023/06/21 00:03:57;;;;;;;22.42;12.73;;;19.10;99.90;;;;;;5014224;28;20051;-74
2023/06/21 00:06:23;;;;;;;25.25;12.43;;;19.10;99.90;;;;;;5011382;28;20033;-74
2023/06/21 00:08:49;;;;;;;25.73;13.27;;;19.10;99.90;;;;;;5010114;28;20037;-74
2023/06/21 00:11:15;;;;;;;22.67;12.45;;;19.10;99.90;;;;;;5028682;28;20049;-74
2023/06/21 00:13:41;;;;;;;23.98;13.13;;;19.10;99.90;;;;;;5010237;28;20128;-75
2023/06/21 00:16:06;;;;;;;23.90;12.35;;;19.10;99.90;;;;;;5028950;28;20120;-76
2023/06/21 00:18:32;;;;;;;28.65;13.82;;;19.10;99.90;;;;;;5010872;28;20064;-75
2023/06/21 00:20:59;;;;;;;26.85;12.85;;;19.00;99.90;;;;;;5009920;28;20037;-74
2023/06/21 00:23:25;;;;;;;21.70;12.85;;;19.00;99.90;;;;;;5011029;28;20030;-74
2023/06/21 00:25:51;;;;;;;22.10;13.02;;;19.00;99.90;;;;;;5010228;28;20116;-75
2023/06/21 00:28:16;;;;;;;21.80;12.65;;;19.00;99.90;;;;;;5024668;28;20531;-74
2023/06/21 00:30:42;;;;;;;25.98;14.13;;;19.00;99.90;;;;;;5009491;28;20041;-74
2023/06/21 00:33:07;;;;;;;23.58;12.90;;;18.90;99.90;;;;;;5028648;28;20076;-74
2023/06/21 00:35:33;;;;;;;22.50;12.82;;;18.90;99.90;;;;;;5028432;28;20513;-73
2023/06/21 00:37:59;;;;;;;24.55;12.77;;;18.90;99.90;;;;;;5027274;28;20037;-75
2023/06/21 00:40:25;;;;;;;24.50;13.93;;;18.90;99.90;;;;;;5010469;28;20060;-74
2023/06/21 00:42:53;;;;;;;27.17;13.57;;;18.80;99.90;;;;;;5009450;28;20159;-73
2023/06/21 00:45:20;;;;;;;29.60;14.20;;;18.80;99.90;;;;;;5010687;28;20542;-74
2023/06/21 00:47:45;;;;;;;24.92;13.30;;;18.80;99.90;;;;;;5023543;28;20099;-74
2023/06/21 00:50:12;;;;;;;25.02;13.32;;;18.70;99.90;;;;;;5026482;28;20034;-76
2023/06/21 00:52:39;;;;;;;22.38;13.70;;;18.70;99.90;;;;;;5027955;28;20090;-74
2023/06/21 00:55:05;;;;;;;25.92;11.82;;;18.60;99.90;;;;;;5010118;28;20041;-73
2023/06/21 00:57:31;;;;;;;21.35;12.95;;;18.60;99.90;;;;;;5022052;28;20052;-73
2023/06/21 00:59:57;;;;;;;21.45;12.52;;;18.60;99.90;;;;;;5009262;28;20037;-75
2023/06/21 01:02:22;;;;;;;22.27;12.45;;;18.60;99.90;;;;;;5010200;28;20037;-73
2023/06/21 01:04:49;;;;;;;22.98;12.55;;;18.50;99.90;;;;;;5012565;28;20029;-73
2023/06/21 01:07:54;;;;;;;20.98;12.75;;;18.50;99.90;;;;;;5024022;28;20041;-74
2023/06/21 01:10:27;;;;;;;19.70;12.00;;;18.50;99.90;;;;;;5002390;28;20026;-73
2023/06/21 01:12:52;;;;;;;22.25;11.68;;;18.50;99.90;;;;;;5009117;28;20052;-74
2023/06/21 01:15:26;;;;;;;21.35;11.90;;;18.50;99.90;;;;;;5009857;28;20037;-74
2023/06/21 01:17:53;;;;;;;21.00;12.13;;;18.40;99.90;;;;;;5026851;28;20034;-74
2023/06/21 01:20:25;;;;;;;23.23;12.88;;;18.40;99.90;;;;;;5027419;28;20037;-74
2023/06/21 01:23:23;;;;;;;22.58;12.88;;;18.40;99.90;;;;;;5008812;28;20481;-74
2023/06/21 01:26:10;;;;;;;21.17;11.95;;;18.40;99.90;;;;;;5005367;28;20095;-74
2023/06/21 01:29:00;;;;;;;22.70;11.10;;;18.50;99.90;;;;;;5004968;28;20395;-74
2023/06/21 01:31:27;;;;;;;23.45;11.70;;;18.50;99.90;;;;;;5009079;28;20442;-74
2023/06/21 01:33:54;;;;;;;23.42;12.93;;;18.50;99.90;;;;;;5008363;28;20029;-74
2023/06/21 01:36:21;;;;;;;25.25;12.50;;;18.50;99.90;;;;;;5009297;28;20038;-74
2023/06/21 01:38:47;;;;;;;25.05;12.85;;;18.50;99.90;;;;;;5009037;28;20057;-74
2023/06/21 01:41:12;;;;;;;24.00;13.00;;;18.50;99.90;;;;;;5008870;28;20565;-74
2023/06/21 01:43:38;;;;;;;28.05;13.32;;;18.60;99.90;;;;;;5026554;28;20084;-75
2023/06/21 01:46:07;;;;;;;25.60;13.40;;;18.60;99.90;;;;;;5009449;28;20056;-75
2023/06/21 01:48:34;;;;;;;26.73;14.25;;;18.60;99.90;;;;;;5009502;28;20080;-73
2023/06/21 01:51:03;;;;;;;24.50;13.05;;;18.60;99.90;;;;;;5007875;28;20771;-73
2023/06/21 01:53:31;;;;;;;24.17;13.52;;;18.60;99.90;;;;;;5027434;28;20022;-74
2023/06/21 01:55:58;;;;;;;24.05;13.10;;;18.60;99.90;;;;;;5009627;28;20084;-76
2023/06/21 01:58:24;;;;;;;28.60;12.82;;;18.60;99.90;;;;;;5012526;28;20482;-74
2023/06/21 02:00:50;;;;;;;23.42;12.02;;;18.70;99.90;;;;;;5008841;28;20117;-72
2023/06/21 02:03:17;;;;;;;24.15;13.30;;;18.70;99.90;;;;;;5009927;28;20507;-74
2023/06/21 02:05:43;;;;;;;24.85;12.98;;;18.70;99.90;;;;;;5011537;28;20033;-74
2023/06/21 02:08:16;;;;;;;22.30;12.40;;;18.70;99.90;;;;;;5008764;28;20580;-75
2023/06/21 02:10:45;;;;;;;23.80;13.30;;;18.60;99.90;;;;;;5008316;28;20120;-74
2023/06/21 02:13:12;;;;;;;24.98;13.50;;;18.60;99.90;;;;;;5009487;28;20079;-76
2023/06/21 02:15:40;;;;;;;23.67;13.02;;;18.60;99.90;;;;;;5009211;28;20029;-76
2023/06/21 02:18:06;;;;;;;24.92;13.15;;;18.60;99.90;;;;;;5009524;28;20393;-75
2023/06/21 02:20:31;;;;;;;26.85;14.10;;;18.50;99.90;;;;;;5009467;28;20037;-72
2023/06/21 02:22:57;;;;;;;30.88;14.88;;;18.50;99.90;;;;;;5008947;28;20529;-74
2023/06/21 02:25:22;;;;;;;35.30;14.15;;;18.50;99.90;;;;;;5027810;28;20065;-74
2023/06/21 02:27:48;;;;;;;28.80;14.43;;;18.40;99.90;;;;;;5026457;28;20041;-76
2023/06/21 02:30:14;;;;;;;29.20;15.75;;;18.40;99.90;;;;;;5026941;28;20033;-75
2023/06/21 02:32:39;;;;;;;32.00;14.93;;;18.40;99.90;;;;;;5025778;28;20072;-75
2023/06/21 02:35:05;;;;;;;30.13;15.18;;;18.30;99.90;;;;;;5026758;28;20049;-76
2023/06/21 02:37:31;;;;;;;32.25;15.23;;;18.30;99.90;;;;;;5026920;28;20104;-75
2023/06/21 02:39:57;;;;;;;30.58;14.60;;;18.20;99.90;;;;;;5008289;28;20476;-74
2023/06/21 02:42:26;;;;;;;31.48;15.25;;;18.20;99.90;;;;;;5008768;28;20041;-74
2023/06/21 02:44:52;;;;;;;29.20;14.27;;;18.20;99.90;;;;;;5007979;28;20037;-74
2023/06/21 02:47:18;;;;;;;33.47;16.27;;;18.10;99.90;;;;;;5009237;28;20041;-73
2023/06/21 02:49:44;;;;;;;29.30;14.93;;;18.10;99.90;;;;;;5007930;28;20045;-76
2023/06/21 02:52:09;;;;;;;35.88;17.20;;;18.10;99.90;;;;;;5026492;28;20385;-75
2023/06/21 02:54:35;;;;;;;36.90;15.15;;;18.10;99.90;;;;;;5012784;28;20045;-75
2023/06/21 02:57:01;;;;;;;31.42;15.68;;;18.00;99.90;;;;;;5032297;28;20424;-75
2023/06/21 02:59:29;;;;;;;31.55;16.45;;;18.00;99.90;;;;;;5030136;28;20037;-75
2023/06/21 03:01:55;;;;;;;30.15;16.25;;;18.00;99.90;;;;;;5029246;28;20034;-73
2023/06/21 03:04:21;;;;;;;37.90;16.60;;;18.00;99.90;;;;;;5032847;28;20037;-73
2023/06/21 03:06:46;;;;;;;30.77;15.40;;;18.00;99.90;;;;;;5011388;28;20040;-74
2023/06/21 03:09:12;;;;;;;34.47;15.57;;;17.90;99.90;;;;;;5012573;28;20116;-75
2023/06/21 03:11:38;;;;;;;35.33;16.98;;;17.90;99.90;;;;;;5012121;28;20079;-73
2023/06/21 03:14:03;;;;;;;36.83;16.38;;;17.90;99.90;;;;;;5011123;28;20026;-75
2023/06/21 03:16:30;;;;;;;36.72;17.13;;;17.90;99.90;;;;;;5012300;28;20049;-75
2023/06/21 03:18:55;;;;;;;41.58;18.27;;;17.90;99.90;;;;;;5011161;28;20595;-74
2023/06/21 03:21:22;;;;;;;39.65;17.63;;;17.90;99.90;;;;;;5011712;28;20022;-74
2023/06/21 03:23:48;;;;;;;31.77;15.80;;;17.90;99.90;;;;;;5011229;28;20057;-74
2023/06/21 03:26:14;;;;;;;34.78;15.93;;;17.90;99.90;;;;;;5012267;28;20025;-73
2023/06/21 03:28:41;;;;;;;38.63;17.38;;;17.90;99.90;;;;;;5011190;28;20191;-78
2023/06/21 03:31:06;;;;;;;41.53;16.92;;;17.80;99.90;;;;;;5004020;28;20044;-73
2023/06/21 03:33:32;;;;;;;35.20;16.38;;;17.80;99.90;;;;;;5012414;28;20437;-73
2023/06/21 03:35:58;;;;;;;33.67;15.90;;;17.80;99.90;;;;;;5011682;28;20045;-73
2023/06/21 03:38:23;;;;;;;33.80;16.20;;;17.80;99.90;;;;;;5012302;28;20164;-74
2023/06/21 03:40:49;;;;;;;30.92;14.68;;;17.80;99.90;;;;;;5028392;28;20057;-75
2023/06/21 03:43:15;;;;;;;33.33;16.98;;;17.80;99.90;;;;;;5028808;28;20036;-75
2023/06/21 03:45:41;;;;;;;34.30;16.45;;;17.80;99.90;;;;;;5009597;28;20046;-75
2023/06/21 03:48:07;;;;;;;34.42;15.93;;;17.80;99.90;;;;;;5011012;28;20038;-72
2023/06/21 03:50:33;;;;;;;34.55;15.75;;;17.70;99.90;;;;;;5000134;28;20387;-73
2023/06/21 03:52:58;;;;;;;31.35;15.15;;;17.80;99.90;;;;;;5001708;28;20047;-75
2023/06/21 03:55:25;;;;;;;33.50;15.52;;;17.80;99.90;;;;;;5011524;28;20041;-75
2023/06/21 03:57:50;;;;;;;33.42;17.20;;;17.80;99.90;;;;;;5030082;28;20037;-73
2023/06/21 04:00:17;;;;;;;37.28;16.30;;;17.80;99.90;;;;;;5011291;28;20030;-72
2023/06/21 04:02:43;;;;;;;33.50;16.25;;;17.80;99.90;;;;;;5010426;28;20288;-73
2023/06/21 04:05:11;;;;;;;35.58;15.55;;;17.90;99.90;;;;;;5012701;28;20117;-73
2023/06/21 04:07:40;;;;;;;30.35;14.52;;;17.90;99.90;;;;;;5011323;28;20493;-75
2023/06/21 04:10:08;;;;;;;34.08;15.77;;;17.90;99.90;;;;;;5024831;28;20135;-74
2023/06/21 04:12:34;;;;;;;28.75;14.52;;;17.90;99.90;;;;;;5020525;28;20121;-73
2023/06/21 04:15:00;;;;;;;33.80;14.93;;;18.00;99.90;;;;;;5028152;28;20124;-75
2023/06/21 04:17:27;;;;;;;31.20;15.45;;;18.00;99.90;;;;;;5011224;28;20037;-72
2023/06/21 04:19:54;;;;;;;29.55;13.18;;;18.10;99.90;;;;;;5010058;28;20069;-74
2023/06/21 04:22:23;;;;;;;28.77;15.73;;;18.10;99.90;;;;;;5010951;28;20129;-74
2023/06/21 04:24:49;;;;;;;30.38;14.90;;;18.10;99.90;;;;;;5009869;28;20040;-73
2023/06/21 04:27:15;;;;;;;26.98;13.35;;;18.20;99.90;;;;;;5028911;28;20037;-73
2023/06/21 04:29:40;;;;;;;28.67;14.00;;;18.20;99.90;;;;;;5010066;28;20045;-73
2023/06/21 04:32:08;;;;;;;26.90;13.32;;;18.20;99.90;;;;;;5009802;28;20033;-73
2023/06/21 04:34:34;;;;;;;24.98;12.27;;;18.30;99.90;;;;;;5007495;28;20045;-74
2023/06/21 04:37:05;;;;;;;25.35;12.85;;;18.20;99.90;;;;;;5010172;28;20045;-72
2023/06/21 04:39:31;;;;;;;24.90;12.57;;;18.20;99.90;;;;;;5010547;28;20048;-74
2023/06/21 04:41:58;;;;;;;31.08;13.95;;;18.30;99.90;;;;;;5009738;28;20485;-75
2023/06/21 04:44:24;;;;;;;25.70;12.35;;;18.40;99.90;;;;;;5001724;28;20041;-75
2023/06/21 04:46:50;;;;;;;24.10;12.07;;;18.40;99.90;;;;;;5009365;28;20502;-74
2023/06/21 04:49:17;;;;;;;22.52;11.45;;;18.60;99.90;;;;;;5028388;28;20033;-75
2023/06/21 04:51:43;;;;;;;24.17;12.68;;;18.60;99.90;;;;;;5009448;28;20467;-75
2023/06/21 04:54:09;;;;;;;26.20;11.85;;;18.70;99.90;;;;;;5008765;28;20477;-73
2023/06/21 04:56:35;;;;;;;23.23;11.75;;;18.70;99.90;;;;;;5009151;28;20030;-74
2023/06/21 04:59:03;;;;;;;22.30;11.45;;;18.80;99.90;;;;;;5025754;28;20145;-73
2023/06/21 05:01:32;;;;;;;19.33;9.98;;;18.90;99.90;;;;;;5026050;28;20029;-73
2023/06/21 05:03:58;;;;;;;20.35;11.05;;;19.00;99.90;;;;;;5025564;28;20035;-73
2023/06/21 05:06:27;;;;;;;23.35;10.50;;;19.10;99.90;;;;;;5009023;28;20030;-73
2023/06/21 05:08:53;;;;;;;20.67;10.27;;;19.20;99.90;;;;;;5007459;28;20030;-73
2023/06/21 05:11:19;;;;;;;21.77;11.27;;;19.30;99.90;;;;;;5026707;28;20032;-74
2023/06/21 05:13:44;;;;;;;22.13;10.88;;;19.40;99.90;;;;;;5026501;28;20895;-72
2023/06/21 05:16:10;;;;;;;18.77;10.23;;;19.40;99.90;;;;;;5008736;28;20029;-73
2023/06/21 05:18:36;;;;;;;16.38;9.68;;;19.40;99.90;;;;;;5026888;28;20033;-74
2023/06/21 05:21:02;;;;;;;17.65;10.27;;;19.40;99.90;;;;;;5025785;28;20068;-74
2023/06/21 05:23:28;;;;;;;16.33;9.20;;;19.40;99.90;;;;;;5009249;28;20650;-73
2023/06/21 05:25:53;;;;;;;19.90;9.02;;;19.40;99.90;;;;;;5025763;28;20034;-73
2023/06/21 05:28:19;;;;;;;17.63;7.97;;;19.50;99.90;;;;;;5009753;28;20507;-73
2023/06/21 05:30:45;;;;;;;16.45;8.52;;;19.50;99.90;;;;;;5026614;28;20033;-73
2023/06/21 05:33:10;;;;;;;16.88;8.55;;;19.60;99.90;;;;;;5010436;28;20037;-74
2023/06/21 05:35:36;;;;;;;15.15;8.55;;;19.80;99.90;;;;;;5026360;28;20049;-74
2023/06/21 05:38:01;;;;;;;13.77;7.38;;;20.00;99.90;;;;;;5007907;28;20029;-73
2023/06/21 05:40:27;;;;;;;14.38;6.65;;;20.20;99.90;;;;;;5026491;28;20583;-74
2023/06/21 05:42:52;;;;;;;13.73;5.97;;;20.40;99.90;;;;;;5025432;28;20044;-73
2023/06/21 05:45:20;;;;;;;14.25;5.65;;;20.50;99.90;;;;;;5008258;28;20037;-74
2023/06/21 05:47:45;;;;;;;9.55;4.97;;;20.60;99.90;;;;;;5007509;28;20056;-74
2023/06/21 05:50:11;;;;;;;7.60;4.55;;;20.70;99.90;;;;;;5008101;28;20037;-74
2023/06/21 05:52:37;;;;;;;9.63;4.45;;;20.60;99.90;;;;;;5026000;28;20033;-74
2023/06/21 05:55:02;;;;;;;6.78;3.95;;;20.50;99.90;;;;;;5024629;28;20052;-73
2023/06/21 05:57:28;;;;;;;9.40;3.47;;;20.30;99.90;;;;;;5008370;28;20550;-72
2023/06/21 05:59:55;;;;;;;8.50;3.53;;;20.30;99.90;;;;;;5005633;28;20649;-74
2023/06/21 06:02:21;;;;;;;6.20;3.00;;;20.20;99.90;;;;;;5025875;28;20033;-73
2023/06/21 06:04:48;;;;;;;9.32;3.25;;;20.20;99.90;;;;;;5006666;28;20037;-73
2023/06/21 06:07:13;;;;;;;8.32;3.17;;;20.10;99.90;;;;;;5008098;28;20041;-75
2023/06/21 06:09:39;;;;;;;9.23;3.10;;;20.10;99.90;;;;;;5008214;28;20692;-74
2023/06/21 06:12:05;;;;;;;6.85;2.80;;;20.00;99.90;;;;;;5025083;28;20713;-73
2023/06/21 06:14:31;;;;;;;7.15;2.42;;;20.00;99.90;;;;;;5008685;28;20534;-73
2023/06/21 06:16:57;;;;;;;6.70;3.03;;;20.00;99.90;;;;;;5006853;28;20028;-73
2023/06/21 06:19:22;;;;;;;5.57;2.70;;;20.20;99.90;;;;;;5008140;28;20036;-74
2023/06/21 06:21:48;;;;;;;5.10;2.72;;;20.40;99.90;;;;;;5024256;28;20048;-73
2023/06/21 06:24:14;;;;;;;5.15;2.80;;;20.50;99.90;;;;;;5027230;28;20056;-74
2023/06/21 06:26:39;;;;;;;5.57;2.47;;;20.60;99.90;;;;;;5007719;28;20111;-73
2023/06/21 06:29:05;;;;;;;4.40;2.10;;;20.60;99.90;;;;;;5027989;28;20120;-76
2023/06/21 06:31:30;;;;;;;4.55;2.42;;;20.80;99.90;;;;;;5011507;28;20038;-73
2023/06/21 06:33:56;;;;;;;9.75;2.17;;;20.80;99.90;;;;;;5010774;28;20047;-74
2023/06/21 06:36:22;;;;;;;11.75;3.22;;;21.00;99.90;;;;;;5012026;28;20025;-73
2023/06/21 06:38:49;;;;;;;4.78;2.17;;;21.20;99.90;;;;;;5028304;28;20064;-74
2023/06/21 06:41:15;;;;;;;5.00;2.25;;;21.40;99.90;;;;;;5011198;28;20025;-73
2023/06/21 06:43:41;;;;;;;3.72;1.80;;;21.60;99.90;;;;;;5010378;28;20030;-73
2023/06/21 06:46:06;;;;;;;3.60;1.77;;;21.80;99.90;;;;;;5011267;28;20095;-74
2023/06/21 06:48:32;;;;;;;3.60;1.58;;;21.90;99.90;;;;;;5011135;28;20037;-74
2023/06/21 06:50:58;;;;;;;4.13;2.13;;;22.00;99.90;;;;;;5025850;28;20441;-75
2023/06/21 06:53:23;;;;;;;4.57;2.05;;;22.20;99.90;;;;;;5011285;28;20044;-74
2023/06/21 06:55:53;;;;;;;4.43;1.65;;;22.40;99.90;;;;;;5009719;28;20676;-73
2023/06/21 06:58:19;;;;;;;6.35;1.50;;;22.60;99.90;;;;;;5028110;28;20402;-74
2023/06/21 07:00:45;;;;;;;4.15;1.50;;;22.80;99.90;;;;;;5027519;28;20047;-73
2023/06/21 07:03:11;;;;;;;2.97;1.55;;;22.90;99.90;;;;;;5028928;28;20040;-74
2023/06/21 07:05:41;;;;;;;3.97;1.45;;;23.10;99.90;;;;;;5011470;28;20038;-74
2023/06/21 07:08:07;;;;;;;5.85;1.30;;;23.50;99.90;;;;;;5027920;28;20045;-73
2023/06/21 07:10:33;;;;;;;2.80;1.05;;;23.80;99.90;;;;;;5028772;28;20042;-74
2023/06/21 07:13:02;;;;;;;2.95;1.17;;;24.30;99.90;;;;;;5009447;28;20064;-73
2023/06/21 07:15:28;;;;;;;1.88;1.05;;;24.90;99.90;;;;;;5009156;28;20048;-74
2023/06/21 07:17:53;;;;;;;3.67;1.25;;;25.60;99.90;;;;;;5009067;28;20492;-74
2023/06/21 07:20:19;;;;;;;2.75;1.40;;;26.40;99.90;;;;;;5028183;28;20041;-74
2023/06/21 07:22:44;;;;;;;4.57;1.70;;;27.00;99.90;;;;;;5008647;28;20052;-73
2023/06/21 07:25:10;;;;;;;4.30;1.70;;;27.80;99.90;;;;;;5026705;28;20029;-74
2023/06/21 07:27:36;;;;;;;6.70;1.92;;;28.50;99.90;;;;;;5027598;28;20073;-74
2023/06/21 07:30:03;;;;;;;6.25;2.33;;;29.10;99.90;;;;;;5027006;28;20061;-74
2023/06/21 07:32:29;;;;;;;4.65;2.63;;;29.80;99.90;;;;;;5028089;28;20053;-73
2023/06/21 07:34:54;;;;;;;4.85;2.33;;;30.30;99.90;;;;;;5025239;28;20099;-75
2023/06/21 07:37:21;;;;;;;6.03;1.98;;;30.90;99.90;;;;;;5007695;28;20049;-73
2023/06/21 07:39:47;;;;;;;7.10;1.77;;;31.50;99.90;;;;;;5025817;28;20084;-75
2023/06/21 07:42:12;;;;;;;6.68;2.15;;;31.80;99.50;;;;;;5027493;28;20042;-75
2023/06/21 07:44:38;;;;;;;3.50;1.80;;;32.10;98.30;;;;;;5010206;28;20116;-74
2023/06/21 07:47:04;;;;;;;7.47;2.70;;;32.50;97.60;;;;;;5026875;28;20048;-74
2023/06/21 07:49:29;;;;;;;4.40;2.38;;;32.60;98.70;;;;;;5025464;28;20037;-75
2023/06/21 07:51:55;;;;;;;4.15;2.20;;;32.80;98.10;;;;;;5025235;28;20193;-74
2023/06/21 07:54:20;;;;;;;4.05;1.80;;;33.10;97.20;;;;;;5026946;28;20033;-74
2023/06/21 07:56:46;;;;;;;4.65;2.05;;;33.70;96.50;;;;;;5027194;28;20040;-75
2023/06/21 07:59:12;;;;;;;6.07;2.45;;;33.70;93.20;;;;;;5027763;28;20041;-75
2023/06/21 08:01:37;;;;;;;4.50;1.95;;;33.30;95.30;;;;;;5027625;28;20038;-74
2023/06/21 08:04:03;;;;;;;5.47;2.00;;;33.30;93.10;;;;;;5026666;28;20045;-74
2023/06/21 08:06:29;;;;;;;7.47;1.80;;;33.00;92.40;;;;;;5027531;28;20038;-74
2023/06/21 08:08:54;;;;;;;6.50;1.92;;;33.00;92.80;;;;;;5026907;28;20041;-74
2023/06/21 08:11:20;;;;;;;3.40;1.88;;;32.90;93.60;;;;;;5027569;28;20521;-75
2023/06/21 08:13:46;;;;;;;3.25;2.10;;;32.60;93.00;;;;;;5008490;28;20037;-75
2023/06/21 08:16:11;;;;;;;3.33;1.50;;;32.40;93.00;;;;;;5009935;28;20033;-74
2023/06/21 08:18:37;;;;;;;4.60;1.38;;;32.20;92.70;;;;;;5027451;28;20041;-74
2023/06/21 08:21:07;;;;;;;4.35;1.50;;;31.90;93.10;;;;;;5025904;28;20038;-74
2023/06/21 08:23:33;;;;;;;2.72;1.33;;;31.30;93.20;;;;;;5009802;28;20091;-75
2023/06/21 08:25:59;;;;;;;1.80;1.10;;;30.60;94.00;;;;;;5024394;28;20034;-74
2023/06/21 08:28:25;;;;;;;3.30;1.10;;;30.30;93.20;;;;;;5027925;28;20469;-72
2023/06/21 08:30:50;;;;;;;3.78;1.10;;;29.90;94.40;;;;;;5026050;28;20033;-72
2023/06/21 08:33:16;;;;;;;3.28;1.05;;;29.60;94.50;;;;;;5028489;28;20082;-72
2023/06/21 08:35:41;;;;;;;2.67;0.90;;;29.30;95.80;;;;;;5009578;28;20087;-73
2023/06/21 08:38:07;;;;;;;2.67;0.82;;;29.20;94.30;;;;;;5009464;28;20045;-74
2023/06/21 08:40:33;;;;;;;1.67;0.70;;;28.90;96.60;;;;;;5009226;28;20450;-72
2023/06/21 08:42:59;;;;;;;2.20;0.68;;;28.70;95.90;;;;;;5026238;28;20041;-72
2023/06/21 08:45:26;;;;;;;1.70;0.88;;;28.60;95.50;;;;;;5026977;28;20563;-72
2023/06/21 08:47:52;;;;;;;1.35;0.77;;;28.30;95.50;;;;;;5026060;28;20347;-73
2023/06/21 08:50:19;;;;;;;4.63;1.38;;;28.20;96.70;;;;;;5024543;28;20037;-71
2023/06/21 08:52:47;;;;;;;2.13;0.80;;;28.10;96.10;;;;;;5008052;28;20056;-71
2023/06/21 08:55:14;;;;;;;2.20;0.82;;;28.00;97.80;;;;;;5009092;28;20048;-72
2023/06/21 08:57:52;;;;;;;1.55;0.70;;;27.80;96.70;;;;;;5010333;28;20055;-72
2023/06/21 09:00:23;;;;;;;2.50;1.08;;;27.70;98.00;;;;;;5006713;28;20049;-73
2023/06/21 09:02:52;;;;;;;6.07;1.20;;;27.50;97.10;;;;;;5025381;28;20057;-72
2023/06/21 09:05:44;;;;;;;2.35;0.70;;;27.50;97.60;;;;;;5026594;28;20105;-72
2023/06/21 09:08:09;;;;;;;3.78;0.68;;;27.50;98.40;;;;;;5025714;28;20152;-73
2023/06/21 09:10:38;;;;;;;2.53;0.75;;;27.50;97.50;;;;;;5026245;28;20112;-72
2023/06/21 09:13:06;;;;;;;2.83;0.60;;;27.50;97.70;;;;;;5025113;28;20053;-73
2023/06/21 09:15:32;;;;;;;4.13;0.88;;;27.40;97.40;;;;;;5008638;28;20750;-73
2023/06/21 09:17:58;;;;;;;2.35;0.70;;;27.30;97.60;;;;;;5008003;28;20029;-74
2023/06/21 09:20:28;;;;;;;3.83;1.15;;;27.30;96.70;;;;;;5008529;28;20037;-74
2023/06/21 09:22:57;;;;;;;2.60;0.60;;;27.20;97.10;;;;;;5004649;28;20052;-72
2023/06/21 09:25:23;;;;;;;9.68;1.17;;;27.40;97.30;;;;;;5008416;28;20065;-72
2023/06/21 09:27:49;;;;;;;2.50;0.88;;;27.30;96.70;;;;;;5007290;28;20068;-72
2023/06/21 09:30:15;;;;;;;1.75;0.65;;;27.30;96.90;;;;;;5025743;28;20048;-73
2023/06/21 09:32:42;;;;;;;2.97;0.75;;;27.30;97.10;;;;;;5024893;28;20045;-72
2023/06/21 09:35:09;;;;;;;1.05;0.50;;;27.40;98.00;;;;;;5026010;28;20050;-73
2023/06/21 09:37:36;;;;;;;4.05;0.70;;;27.50;98.00;;;;;;5008171;28;20084;-72
2023/06/21 09:40:03;;;;;;;2.10;0.50;;;27.60;96.90;;;;;;5024390;28;20524;-71
2023/06/21 09:42:29;;;;;;;1.85;0.60;;;27.60;96.50;;;;;;5007529;28;20033;-73
2023/06/21 09:44:55;;;;;;;1.60;0.68;;;27.50;96.10;;;;;;5024828;28;20037;-73
2023/06/21 09:47:21;;;;;;;2.92;0.95;;;27.50;96.50;;;;;;5009669;28;20351;-72
2023/06/21 09:49:48;;;;;;;1.70;0.60;;;27.40;95.30;;;;;;5026109;28;20037;-73
2023/06/21 09:52:21;;;;;;;2.05;0.60;;;27.30;95.70;;;;;;5006330;28;20542;-73
2023/06/21 09:54:47;;;;;;;7.18;1.25;;;27.30;96.00;;;;;;5019296;28;20037;-74
2023/06/21 09:57:13;;;;;;;2.95;0.70;;;27.40;95.30;;;;;;5025887;28;20037;-76
2023/06/21 09:59:40;;;;;;;2.38;0.70;;;27.40;95.00;;;;;;5027221;28;20116;-73
2023/06/21 10:02:06;;;;;;;3.20;0.90;;;27.30;94.50;;;;;;5010800;28;20029;-72
2023/06/21 10:04:40;;;;;;;3.15;0.50;;;27.30;94.80;;;;;;5018153;28;20086;-73
2023/06/21 10:07:06;;;;;;;1.27;0.60;;;27.40;94.50;;;;;;5008823;28;20045;-74
2023/06/21 10:09:37;;;;;;;1.20;0.60;;;27.50;95.30;;;;;;5008585;28;20510;-71
2023/06/21 10:12:03;;;;;;;2.28;0.45;;;27.60;95.50;;;;;;5025712;28;20072;-72
2023/06/21 10:14:30;;;;;;;2.25;0.50;;;27.60;95.40;;;;;;5026950;28;20064;-72
2023/06/21 10:16:56;;;;;;;1.60;0.80;;;27.60;94.80;;;;;;5008340;28;20029;-72
2023/06/21 10:19:26;;;;;;;2.72;0.60;;;27.60;94.60;;;;;;5027293;28;20046;-72
2023/06/21 10:22:09;;;;;;;1.10;0.50;;;27.50;93.80;;;;;;5025379;28;20116;-72
2023/06/21 10:24:52;;;;;;;5.93;0.95;;;27.40;95.50;;;;;;5027054;28;20046;-74
2023/06/21 10:27:19;;;;;;;1.50;0.77;;;27.30;96.10;;;;;;5005619;28;20052;-74
2023/06/21 10:29:50;;;;;;;2.65;0.90;;;27.40;96.10;;;;;;5025763;28;20033;-72
2023/06/21 10:32:16;;;;;;;0.85;0.52;;;27.30;95.10;;;;;;5023260;28;20056;-72
2023/06/21 10:35:15;;;;;;;2.08;0.40;;;27.20;96.00;;;;;;5021505;28;20037;-74
2023/06/21 10:38:04;;;;;;;1.25;0.50;;;27.20;94.80;;;;;;5009084;28;20037;-73
2023/06/21 10:40:30;;;;;;;1.13;0.60;;;27.00;93.90;;;;;;5006631;28;20033;-72
2023/06/21 10:42:58;;;;;;;4.32;0.68;;;26.90;94.70;;;;;;5025329;28;20054;-72
2023/06/21 10:45:24;;;;;;;1.77;0.43;;;26.90;95.10;;;;;;5026914;28;20030;-72
2023/06/21 10:47:53;;;;;;;3.20;0.80;;;27.00;94.70;;;;;;5007992;28;20030;-73
2023/06/21 10:50:21;;;;;;;1.70;0.73;;;26.80;95.00;;;;;;5026659;28;20045;-72
2023/06/21 10:52:51;;;;;;;4.80;1.10;;;26.60;94.30;;;;;;5025006;28;20548;-75
2023/06/21 10:55:17;;;;;;;2.80;0.50;;;26.60;94.10;;;;;;5023502;28;20056;-73
2023/06/21 10:57:43;;;;;;;2.80;1.02;;;26.60;94.50;;;;;;5027471;28;20370;-74
2023/06/21 11:00:09;;;;;;;1.00;0.77;;;26.70;95.00;;;;;;5007436;28;20041;-73
2023/06/21 11:02:35;;;;;;;2.58;0.52;;;27.00;94.80;;;;;;5025213;28;20140;-74
2023/06/21 11:05:14;;;;;;;4.45;1.10;;;27.40;95.00;;;;;;5008577;28;20223;-72
2023/06/21 11:07:58;;;;;;;2.53;0.80;;;27.50;93.40;;;;;;5006032;28;20080;-71
2023/06/21 11:10:46;;;;;;;2.20;0.90;;;27.30;94.10;;;;;;5005879;28;20045;-72
2023/06/21 11:13:13;;;;;;;3.35;1.08;;;27.40;94.00;;;;;;5004338;28;20038;-73
2023/06/21 11:15:46;;;;;;;1.80;1.15;;;27.10;94.10;;;;;;5027582;28;20055;-72
2023/06/21 11:18:18;;;;;;;1.08;0.50;;;26.90;94.90;;;;;;5026865;28;20029;-72
2023/06/21 11:20:45;;;;;;;3.40;0.93;;;26.70;95.20;;;;;;5027481;28;20052;-71
2023/06/21 11:23:16;;;;;;;2.38;1.00;;;26.60;94.60;;;;;;5010902;28;20490;-72
2023/06/21 11:25:52;;;;;;;1.52;0.75;;;26.60;94.80;;;;;;5010048;28;20037;-74
2023/06/21 11:28:18;;;;;;;4.75;1.17;;;26.60;95.30;;;;;;5009993;28;20041;-72
2023/06/21 11:31:09;;;;;;;2.13;0.88;;;26.60;95.20;;;;;;5027407;28;20057;-72
2023/06/21 11:33:54;;;;;;;1.95;0.70;;;26.50;95.00;;;;;;5011763;28;20036;-72
2023/06/21 11:36:32;;;;;;;1.08;0.50;;;26.60;95.90;;;;;;5008821;28;20049;-71
2023/06/21 11:38:58;;;;;;;1.15;0.60;;;26.70;95.40;;;;;;5007981;28;20029;-73
2023/06/21 11:41:42;;;;;;;1.52;0.70;;;26.90;95.30;;;;;;5010130;28;20037;-72
2023/06/21 11:44:08;;;;;;;1.80;0.75;;;27.20;94.80;;;;;;5024811;28;20521;-73
2023/06/21 11:46:34;;;;;;;3.30;1.13;;;27.50;93.30;;;;;;5027871;28;20835;-74
2023/06/21 11:49:00;;;;;;;3.25;0.57;;;27.80;93.20;;;;;;5026979;28;20046;-72
2023/06/21 11:51:28;;;;;;;2.03;0.57;;;27.90;93.30;;;;;;5009702;28;20033;-73
2023/06/21 11:53:55;;;;;;;1.67;1.00;;;28.10;93.10;;;;;;5008934;28;20125;-72
2023/06/21 11:56:21;;;;;;;2.50;0.70;;;28.20;92.10;;;;;;5029860;28;20041;-72
2023/06/21 11:58:47;;;;;;;2.70;0.80;;;28.10;92.10;;;;;;5008916;28;20045;-72
2023/06/21 12:01:14;;;;;;;2.33;0.52;;;27.90;92.30;;;;;;5027609;28;20041;-72
2023/06/21 12:03:40;;;;;;;1.95;0.57;;;28.00;92.20;;;;;;5028834;28;20040;-72
2023/06/21 12:06:06;;;;;;;3.30;1.00;;;27.90;92.80;;;;;;5026730;28;20032;-72
2023/06/21 12:08:36;;;;;;;3.25;0.80;;;28.00;92.10;;;;;;5009688;28;20037;-72
2023/06/21 12:11:06;;;;;;;1.70;0.57;;;28.10;91.40;;;;;;5026289;28;20505;-71
2023/06/21 12:13:32;;;;;;;;;;;28.00;91.40;;;;;;5010357;28;20092;-72
2023/06/21 12:16:00;;;;;;;1.40;0.80;;;27.80;91.80;;;;;;5008828;28;19944;-72
2023/06/21 12:18:27;;;;;;;1.20;0.50;;;27.80;91.60;;;;;;5009753;28;20501;-72
2023/06/21 12:20:54;;;;;;;2.10;0.70;;;28.00;91.20;;;;;;5026141;28;20037;-72
2023/06/21 12:23:21;;;;;;;1.48;0.65;;;27.70;92.00;;;;;;5027563;28;20033;-72
2023/06/21 12:25:54;;;;;;;3.13;0.80;;;27.60;91.90;;;;;;5026266;28;20120;-71
2023/06/21 12:28:21;;;;;;;1.58;0.57;;;27.80;91.90;;;;;;5027345;28;20037;-73
2023/06/21 12:31:12;;;;;;;2.20;0.80;;;27.70;91.10;;;;;;5025923;28;20792;-73
2023/06/21 12:33:39;;;;;;;4.75;1.70;;;27.60;92.00;;;;;;5024822;28;20036;-72
2023/06/21 12:36:23;;;;;;;4.50;2.22;;;27.50;93.50;;;;;;5005115;28;20703;-72
2023/06/21 12:38:55;;;;;;;6.18;2.55;;;27.60;95.60;;;;;;5023998;28;20044;-73
2023/06/21 12:41:23;;;;;;;6.55;2.63;;;27.50;95.90;;;;;;5009048;28;20456;-72